Time;durP1;ratioP1;P1;durP2;ratioP2;P2;SDS_P1;SDS_P2;PMS_P1;PMS_P2;Temp;Humidity;BMP_temperature;BMP_pressure;BME280_temperature;BME280_humidity;BME280_pressure;Samples;Min_cycle;Max_cycle;Signal;HPM_P1;HPM_P2
2024/04/10 00:01:14;;;;;;;1.83;1.23;;;18.20;65.80;;;;;;6495780;21;20564;-83
2024/04/10 00:03:42;;;;;;;1.35;1.25;;;18.10;65.90;;;;;;6495176;21;20315;-83
2024/04/10 00:06:08;;;;;;;2.95;1.67;;;18.20;65.90;;;;;;6453490;21;20263;-83
2024/04/10 00:08:35;;;;;;;2.05;1.50;;;18.10;65.90;;;;;;6453380;21;20221;-83
2024/04/10 00:11:00;;;;;;;2.80;1.80;;;18.10;66.00;;;;;;6495542;21;20217;-83
2024/04/10 00:13:30;;;;;;;2.08;1.60;;;18.10;65.80;;;;;;6495663;21;20217;-83
2024/04/10 00:16:00;;;;;;;1.80;1.40;;;18.10;66.00;;;;;;6496390;21;20243;-83
2024/04/10 00:18:26;;;;;;;1.83;1.50;;;18.10;65.90;;;;;;6495501;21;20221;-83
2024/04/10 00:20:51;;;;;;;1.70;1.60;;;18.20;65.90;;;;;;6495818;21;20225;-83
2024/04/10 00:23:18;;;;;;;1.98;1.50;;;18.10;65.90;;;;;;6495481;21;20385;-83
2024/04/10 00:26:00;;;;;;;2.28;1.30;;;18.20;65.80;;;;;;6495781;21;20214;-83
2024/04/10 00:28:31;;;;;;;1.73;1.60;;;18.10;65.90;;;;;;6453185;21;20256;-83
2024/04/10 00:30:57;;;;;;;2.17;1.40;;;18.10;65.80;;;;;;6410019;21;20225;-83
2024/04/10 00:33:23;;;;;;;1.83;1.25;;;18.20;66.10;;;;;;6452916;21;20225;-83
2024/04/10 00:36:00;;;;;;;1.70;1.60;;;18.10;65.90;;;;;;6495407;21;20217;-83
2024/04/10 00:38:27;;;;;;;1.80;1.60;;;18.20;65.90;;;;;;6494589;21;20217;-83
2024/04/10 00:40:56;;;;;;;2.20;1.50;;;18.10;65.90;;;;;;6495418;21;20221;-83
2024/04/10 00:43:22;;;;;;;1.85;1.75;;;18.10;66.00;;;;;;6495641;21;20539;-83
2024/04/10 00:46:08;;;;;;;4.35;1.77;;;18.10;65.90;;;;;;6494705;21;20239;-83
2024/04/10 00:48:35;;;;;;;4.07;1.70;;;18.20;66.00;;;;;;6496211;21;20251;-84
2024/04/10 00:51:01;;;;;;;1.77;1.67;;;18.10;65.90;;;;;;6495191;21;20218;-83
2024/04/10 00:53:29;;;;;;;1.63;1.50;;;18.10;66.10;;;;;;6495079;21;20273;-84
2024/04/10 00:55:56;;;;;;;3.88;1.70;;;18.10;66.00;;;;;;6494166;21;20264;-83
2024/04/10 00:58:22;;;;;;;1.83;1.60;;;18.10;66.00;;;;;;6494970;21;20225;-83
2024/04/10 01:00:48;;;;;;;2.33;1.80;;;18.10;66.10;;;;;;6453450;21;20217;-84
2024/04/10 01:03:18;;;;;;;2.08;1.58;;;18.10;66.20;;;;;;6452679;21;20323;-83
2024/04/10 01:05:54;;;;;;;5.63;1.90;;;18.10;66.10;;;;;;6494875;21;20233;-83
2024/04/10 01:08:20;;;;;;;2.50;1.60;;;18.10;66.50;;;;;;6455913;21;20717;-83
2024/04/10 01:10:46;;;;;;;2.53;1.70;;;18.10;65.90;;;;;;6494349;21;20233;-83
2024/04/10 01:13:14;;;;;;;2.05;1.40;;;18.10;65.70;;;;;;6494689;21;20318;-83
2024/04/10 01:15:44;;;;;;;2.47;1.38;;;18.20;66.00;;;;;;6452633;21;20269;-83
2024/04/10 01:18:11;;;;;;;2.22;1.70;;;18.10;65.90;;;;;;6410013;21;20306;-83
2024/04/10 01:20:36;;;;;;;1.70;1.58;;;18.10;65.90;;;;;;6494393;21;20240;-84
2024/04/10 01:23:03;;;;;;;2.15;1.63;;;18.10;65.90;;;;;;6452603;21;20218;-83
2024/04/10 01:25:33;;;;;;;2.65;1.67;;;18.10;66.00;;;;;;6495110;21;20209;-83
2024/04/10 01:27:59;;;;;;;3.22;1.67;;;18.10;65.90;;;;;;6451706;21;20221;-84
2024/04/10 01:30:25;;;;;;;1.50;1.30;;;18.10;66.10;;;;;;6494522;21;20213;-83
2024/04/10 01:32:51;;;;;;;2.05;1.52;;;18.10;65.90;;;;;;6537666;21;20240;-83
2024/04/10 01:35:17;;;;;;;1.92;1.70;;;18.10;65.90;;;;;;6452263;21;20212;-83
2024/04/10 01:37:42;;;;;;;1.63;1.50;;;18.00;66.00;;;;;;6452413;21;20620;-83
2024/04/10 01:40:09;;;;;;;2.10;1.23;;;18.10;66.10;;;;;;6494528;21;20256;-83
2024/04/10 01:42:35;;;;;;;1.88;1.45;;;18.00;66.10;;;;;;6537126;21;20260;-83
2024/04/10 01:45:06;;;;;;;2.45;1.70;;;18.00;66.10;;;;;;6494420;21;20217;-83
2024/04/10 01:47:32;;;;;;;1.73;1.50;;;18.00;66.10;;;;;;6409452;21;20217;-83
2024/04/10 01:49:57;;;;;;;2.05;1.70;;;18.00;66.00;;;;;;6494657;21;20243;-83
2024/04/10 01:52:23;;;;;;;1.58;1.48;;;18.00;66.20;;;;;;6494584;21;20236;-83
2024/04/10 01:54:53;;;;;;;2.08;1.65;;;18.00;66.10;;;;;;6493607;21;20279;-83
2024/04/10 01:57:21;;;;;;;1.77;1.67;;;18.00;65.90;;;;;;6409320;21;20641;-83
2024/04/10 01:59:47;;;;;;;1.73;1.50;;;18.00;65.80;;;;;;6494863;21;20225;-83
2024/04/10 02:02:13;;;;;;;2.45;1.55;;;18.00;65.90;;;;;;6494446;21;20253;-83
2024/04/10 02:04:39;;;;;;;2.03;1.60;;;18.00;66.00;;;;;;6494303;21;20217;-83
2024/04/10 02:07:07;;;;;;;1.50;1.40;;;18.00;66.20;;;;;;6452542;21;20229;-83
2024/04/10 02:09:33;;;;;;;1.92;1.80;;;18.00;66.10;;;;;;6494584;21;20225;-83
2024/04/10 02:11:59;;;;;;;1.85;1.63;;;18.00;66.00;;;;;;6452072;21;20314;-83
2024/04/10 02:14:28;;;;;;;2.10;1.70;;;18.00;66.00;;;;;;6494939;21;20673;-83
2024/04/10 02:16:53;;;;;;;1.75;1.50;;;17.90;66.10;;;;;;6452452;21;20217;-83
2024/04/10 02:19:19;;;;;;;2.38;1.50;;;18.00;66.00;;;;;;6493765;21;20270;-83
2024/04/10 02:21:45;;;;;;;2.92;1.40;;;18.00;66.20;;;;;;6452032;21;20217;-83
2024/04/10 02:24:22;;;;;;;2.97;1.73;;;18.10;66.10;;;;;;6494416;21;20217;-83
2024/04/10 02:26:48;;;;;;;2.10;1.60;;;18.00;66.10;;;;;;6409184;21;20264;-83
2024/04/10 02:29:14;;;;;;;1.83;1.40;;;18.00;66.10;;;;;;6493758;21;20213;-83
2024/04/10 02:31:41;;;;;;;1.77;1.63;;;18.00;66.00;;;;;;6452317;21;20217;-83
2024/04/10 02:34:07;;;;;;;2.53;1.55;;;18.00;66.20;;;;;;6494075;21;20221;-83
2024/04/10 02:36:40;;;;;;;2.08;1.80;;;18.00;66.10;;;;;;6452042;21;20221;-85
2024/04/10 02:39:10;;;;;;;1.67;1.38;;;18.00;66.30;;;;;;6454766;21;20221;-82
2024/04/10 02:41:38;;;;;;;2.10;1.58;;;18.00;66.30;;;;;;6451587;21;20578;-83
2024/04/10 02:44:09;;;;;;;2.65;1.67;;;18.00;66.30;;;;;;6494016;21;20248;-83
2024/04/10 02:46:39;;;;;;;2.55;1.60;;;18.00;66.30;;;;;;6450973;21;20260;-83
2024/04/10 02:49:05;;;;;;;1.85;1.50;;;18.10;66.10;;;;;;6408796;21;20782;-83
2024/04/10 02:51:30;;;;;;;1.70;1.60;;;18.00;66.00;;;;;;6494010;21;20279;-83
2024/04/10 02:53:56;;;;;;;2.00;1.55;;;18.00;66.20;;;;;;6450437;21;20217;-83
2024/04/10 02:56:22;;;;;;;1.88;1.77;;;18.00;66.10;;;;;;6494155;21;20212;-83
2024/04/10 02:58:49;;;;;;;2.35;1.60;;;18.00;66.20;;;;;;6451850;21;20247;-83
2024/04/10 03:01:16;;;;;;;1.70;1.50;;;18.00;66.10;;;;;;6494424;21;20248;-83
2024/04/10 03:03:43;;;;;;;2.05;1.85;;;18.00;66.40;;;;;;6494234;21;20217;-83
2024/04/10 03:06:09;;;;;;;1.60;1.50;;;18.00;66.20;;;;;;6493839;21;20268;-83
2024/04/10 03:08:36;;;;;;;1.85;1.73;;;18.00;66.30;;;;;;6493985;21;20208;-83
2024/04/10 03:11:02;;;;;;;1.70;1.60;;;17.90;66.10;;;;;;6495126;21;20263;-83
2024/04/10 03:13:28;;;;;;;1.98;1.70;;;17.90;66.10;;;;;;6494055;21;20209;-83
2024/04/10 03:15:55;;;;;;;1.90;1.77;;;18.00;66.10;;;;;;6493947;21;20622;-84
2024/04/10 03:18:22;;;;;;;1.70;1.60;;;17.90;65.80;;;;;;6451597;21;20212;-83
2024/04/10 03:20:48;;;;;;;1.58;1.35;;;18.00;65.90;;;;;;6409157;21;20321;-83
2024/04/10 03:23:14;;;;;;;2.03;1.70;;;18.00;66.00;;;;;;6582387;21;20572;-83
2024/04/10 03:25:40;;;;;;;1.83;1.60;;;18.00;65.90;;;;;;6494521;21;20214;-83
2024/04/10 03:28:13;;;;;;;1.73;1.60;;;18.00;66.00;;;;;;6493898;21;20217;-83
2024/04/10 03:30:40;;;;;;;1.65;1.55;;;18.00;65.90;;;;;;6451039;21;20705;-83
2024/04/10 03:33:07;;;;;;;1.88;1.77;;;18.00;66.10;;;;;;6454591;21;20225;-83
2024/04/10 03:35:33;;;;;;;1.65;1.55;;;18.00;66.30;;;;;;6498723;21;20267;-83
2024/04/10 03:37:59;;;;;;;3.05;1.90;;;17.90;66.30;;;;;;6499288;21;20214;-83
2024/04/10 03:40:26;;;;;;;1.98;1.80;;;17.90;66.10;;;;;;6499062;21;20243;-83
2024/04/10 03:42:53;;;;;;;2.00;1.80;;;18.00;66.00;;;;;;6500273;21;20310;-83
2024/04/10 03:45:20;;;;;;;1.48;1.38;;;17.90;66.10;;;;;;6500486;21;20217;-83
2024/04/10 03:47:47;;;;;;;1.90;1.80;;;17.90;66.10;;;;;;6498687;21;20213;-83
2024/04/10 03:50:14;;;;;;;1.60;1.50;;;17.90;66.10;;;;;;6457496;21;20595;-83
2024/04/10 03:52:40;;;;;;;1.70;1.60;;;17.90;66.10;;;;;;6499891;21;20217;-83
2024/04/10 03:55:09;;;;;;;2.10;1.60;;;18.00;66.30;;;;;;6456622;21;20243;-83
2024/04/10 03:57:38;;;;;;;2.78;1.98;;;17.90;66.20;;;;;;6455597;21;20225;-83
2024/04/10 04:00:07;;;;;;;2.50;1.75;;;17.90;66.10;;;;;;6538465;21;20318;-83
2024/04/10 04:02:35;;;;;;;1.98;1.73;;;17.90;66.10;;;;;;6496232;21;20220;-83
2024/04/10 04:05:01;;;;;;;2.45;1.70;;;18.00;66.20;;;;;;6495860;21;20583;-83
2024/04/10 04:07:27;;;;;;;2.42;1.63;;;18.00;66.10;;;;;;6453327;21;20237;-83
2024/04/10 04:09:54;;;;;;;1.80;1.70;;;17.90;66.10;;;;;;6453012;21;20221;-83
2024/04/10 04:12:20;;;;;;;1.70;1.60;;;18.00;65.90;;;;;;6538318;21;20217;-83
2024/04/10 04:14:47;;;;;;;1.60;1.50;;;17.90;66.00;;;;;;6495525;21;20657;-84
2024/04/10 04:17:15;;;;;;;1.90;1.70;;;18.00;66.10;;;;;;6538937;21;20221;-83
2024/04/10 04:19:40;;;;;;;2.30;1.55;;;17.90;66.20;;;;;;6495420;21;20221;-83
2024/04/10 04:22:06;;;;;;;1.63;1.50;;;17.90;66.20;;;;;;6493963;21;20217;-82
2024/04/10 04:24:33;;;;;;;1.75;1.60;;;17.90;66.20;;;;;;6493924;21;20221;-82
2024/04/10 04:27:00;;;;;;;3.60;1.73;;;17.90;66.90;;;;;;6493819;21;20228;-82
2024/04/10 04:29:26;;;;;;;1.92;1.70;;;17.90;66.10;;;;;;6493136;21;20221;-82
2024/04/10 04:31:52;;;;;;;2.88;1.73;;;17.90;66.10;;;;;;6493357;21;20305;-82
2024/04/10 04:34:21;;;;;;;2.78;1.55;;;17.90;66.20;;;;;;6494565;21;20254;-82
2024/04/10 04:36:48;;;;;;;1.95;1.50;;;17.90;66.10;;;;;;6451875;21;20543;-82
2024/04/10 04:39:14;;;;;;;1.50;1.25;;;17.90;66.10;;;;;;6494821;21;20228;-83
2024/04/10 04:41:40;;;;;;;1.48;1.38;;;17.90;66.10;;;;;;6494929;21;20537;-82
2024/04/10 04:44:06;;;;;;;2.10;1.50;;;17.90;66.10;;;;;;6494618;21;20216;-83
2024/04/10 04:46:33;;;;;;;1.73;1.60;;;17.90;66.10;;;;;;6495094;21;20209;-83
2024/04/10 04:49:00;;;;;;;1.63;1.50;;;17.90;66.20;;;;;;6538031;21;20213;-82
2024/04/10 04:51:27;;;;;;;1.70;1.55;;;17.90;66.10;;;;;;6495572;21;20217;-83
2024/04/10 04:53:53;;;;;;;2.05;1.60;;;18.00;66.00;;;;;;6495120;21;20225;-82
2024/04/10 04:56:21;;;;;;;3.53;1.50;;;17.90;66.00;;;;;;6495462;21;20259;-83
2024/04/10 04:58:47;;;;;;;3.22;1.80;;;17.90;66.10;;;;;;6451571;21;20259;-82
2024/04/10 05:01:13;;;;;;;2.20;1.70;;;17.90;66.00;;;;;;6452606;21;20217;-83
2024/04/10 05:06:15;;;;;;;1.83;1.70;;;17.90;66.90;;;;;;6500847;21;20257;-83
2024/04/10 05:08:40;;;;;;;2.60;1.70;;;17.90;66.20;;;;;;6493185;21;20657;-82
2024/04/10 05:11:07;;;;;;;1.80;1.58;;;18.00;66.10;;;;;;6450036;21;20239;-83
2024/04/10 05:13:34;;;;;;;1.83;1.73;;;18.00;66.00;;;;;;6492881;21;20237;-83
2024/04/10 05:16:00;;;;;;;1.60;1.50;;;18.00;66.10;;;;;;6451478;21;20252;-82
2024/04/10 05:18:26;;;;;;;1.88;1.40;;;17.90;66.00;;;;;;6450536;21;20229;-83
2024/04/10 05:20:52;;;;;;;3.22;1.70;;;18.00;66.10;;;;;;6493107;21;20537;-82
2024/04/10 05:23:18;;;;;;;2.17;1.40;;;18.00;66.00;;;;;;6451011;21;20533;-83
2024/04/10 05:25:46;;;;;;;1.90;1.60;;;17.90;66.20;;;;;;6452422;21;20262;-83
2024/04/10 05:28:11;;;;;;;1.70;1.60;;;17.90;66.20;;;;;;6494405;21;20221;-83
2024/04/10 05:30:37;;;;;;;1.95;1.50;;;17.90;66.10;;;;;;6538197;21;20568;-83
2024/04/10 05:33:03;;;;;;;1.70;1.60;;;17.90;66.20;;;;;;6497078;21;20267;-83
2024/04/10 05:35:30;;;;;;;2.05;1.58;;;18.00;66.10;;;;;;6494774;21;20213;-83
2024/04/10 05:37:56;;;;;;;1.70;1.42;;;18.00;66.00;;;;;;6538448;21;20224;-83
2024/04/10 05:40:22;;;;;;;2.08;1.60;;;18.00;66.20;;;;;;6494869;21;20217;-83
2024/04/10 05:42:48;;;;;;;2.35;1.48;;;18.00;66.20;;;;;;6539111;21;20263;-83
2024/04/10 05:45:18;;;;;;;1.52;1.40;;;18.00;66.00;;;;;;6538268;21;20213;-83
2024/04/10 05:47:48;;;;;;;1.65;1.52;;;18.00;66.10;;;;;;6451228;21;20259;-83
2024/04/10 05:50:14;;;;;;;2.08;1.50;;;18.00;66.10;;;;;;6494440;21;20213;-83
2024/04/10 05:52:41;;;;;;;2.55;1.50;;;18.00;66.20;;;;;;6452488;21;20221;-82
2024/04/10 05:55:07;;;;;;;2.67;1.85;;;18.00;66.10;;;;;;6493044;21;20719;-83
2024/04/10 05:57:33;;;;;;;2.15;1.55;;;18.00;66.10;;;;;;6451686;21;20229;-82
2024/04/10 05:59:59;;;;;;;1.92;1.52;;;18.00;66.00;;;;;;6495327;21;20209;-82
2024/04/10 06:02:27;;;;;;;1.98;1.58;;;18.00;66.00;;;;;;6494581;21;20594;-83
2024/04/10 06:04:54;;;;;;;1.70;1.60;;;18.00;66.20;;;;;;6538654;21;20252;-83
2024/04/10 06:07:20;;;;;;;2.45;1.60;;;17.90;66.10;;;;;;6495524;21;20229;-83
2024/04/10 06:09:46;;;;;;;2.38;1.50;;;17.90;66.10;;;;;;6495966;21;20244;-83
2024/04/10 06:12:13;;;;;;;2.47;1.42;;;18.00;65.80;;;;;;6492381;21;20235;-82
2024/04/10 06:14:39;;;;;;;1.67;1.50;;;18.00;65.90;;;;;;6451016;21;20310;-83
2024/04/10 06:17:05;;;;;;;1.60;1.50;;;18.10;65.80;;;;;;6581951;21;20649;-83
2024/04/10 06:19:32;;;;;;;1.63;1.40;;;18.00;65.60;;;;;;6494100;21;20244;-83
2024/04/10 06:21:57;;;;;;;1.60;1.48;;;18.20;65.60;;;;;;6494042;21;20244;-82
2024/04/10 06:24:23;;;;;;;2.67;1.63;;;18.10;65.40;;;;;;6536840;21;20225;-82
2024/04/10 06:26:50;;;;;;;2.72;1.50;;;18.10;65.30;;;;;;6493693;21;20381;-82
2024/04/10 06:29:18;;;;;;;2.53;1.77;;;18.20;65.10;;;;;;6495033;21;20260;-82
2024/04/10 06:31:44;;;;;;;1.80;1.60;;;18.20;65.10;;;;;;6496318;21;20260;-83
2024/04/10 06:34:10;;;;;;;1.67;1.58;;;18.30;64.90;;;;;;6495841;21;20217;-83
2024/04/10 06:36:36;;;;;;;2.15;1.33;;;18.20;65.00;;;;;;6454666;21;20251;-83
2024/04/10 06:39:09;;;;;;;1.40;1.30;;;18.20;64.80;;;;;;6540282;21;20677;-83
2024/04/10 06:41:35;;;;;;;1.88;1.38;;;18.20;65.10;;;;;;6466637;21;20221;-83
2024/04/10 06:44:01;;;;;;;1.50;1.40;;;18.20;64.90;;;;;;6459299;21;20311;-80
2024/04/10 06:46:36;;;;;;;1.40;1.30;;;18.30;64.90;;;;;;6456065;21;20277;-82
2024/04/10 06:49:42;;;;;;;;;;;;;;;;;;;;;
2024/04/10 06:59:21;;;;;;;1.40;1.30;;;18.20;64.80;;;;;;6276311;22;20683;-80
2024/04/10 07:02:10;;;;;;;2.40;1.63;;;18.20;64.60;;;;;;6272626;22;20266;-80
2024/04/10 07:04:36;;;;;;;1.70;1.33;;;18.20;64.80;;;;;;6235235;22;20271;-80
2024/04/10 07:07:06;;;;;;;1.50;1.30;;;18.30;64.20;;;;;;6275509;22;20542;-80
2024/04/10 07:09:33;;;;;;;1.88;1.25;;;18.40;64.30;;;;;;6236418;22;20315;-80
2024/04/10 07:11:59;;;;;;;1.50;1.40;;;18.30;65.30;;;;;;6278887;22;20254;-80
2024/04/10 07:14:32;;;;;;;1.27;1.17;;;18.30;64.30;;;;;;6281621;22;20219;-80
2024/04/10 07:17:04;;;;;;;2.25;1.40;;;18.30;64.60;;;;;;6186486;23;20222;-80
2024/04/10 07:19:38;;;;;;;3.00;1.10;;;18.30;65.10;;;;;;6189401;22;20227;-80
2024/04/10 07:22:06;;;;;;;1.15;1.05;;;18.20;64.40;;;;;;6330802;22;20747;-80
2024/04/10 07:24:34;;;;;;;1.75;1.35;;;18.40;64.60;;;;;;6289510;22;20639;-80
2024/04/10 07:27:05;;;;;;;3.38;1.40;;;18.30;65.00;;;;;;6251964;22;20226;-80
2024/04/10 07:29:30;;;;;;;1.67;1.33;;;18.30;64.60;;;;;;6291075;22;20237;-80
2024/04/10 07:31:56;;;;;;;1.42;1.15;;;18.30;65.60;;;;;;6213295;22;20267;-81
2024/04/10 07:34:22;;;;;;;1.20;1.10;;;18.30;64.60;;;;;;6260801;22;20259;-81
2024/04/10 07:36:48;;;;;;;1.30;1.20;;;18.30;64.60;;;;;;6261003;22;20340;-80
2024/04/10 07:39:14;;;;;;;1.52;1.20;;;18.30;64.70;;;;;;6260691;22;20217;-80
2024/04/10 07:41:40;;;;;;;1.92;1.30;;;18.30;64.60;;;;;;6340375;22;20269;-80
2024/04/10 07:44:07;;;;;;;2.50;1.20;;;18.30;64.20;;;;;;6259215;22;20530;-81
2024/04/10 07:46:34;;;;;;;1.33;1.20;;;18.30;63.80;;;;;;6258328;22;20222;-81
2024/04/10 07:48:59;;;;;;;1.40;1.30;;;18.30;64.30;;;;;;6370513;22;20260;-80
2024/04/10 07:51:28;;;;;;;1.33;1.20;;;18.30;64.20;;;;;;6340952;22;20217;-81
2024/04/10 07:53:54;;;;;;;2.63;1.38;;;18.30;64.10;;;;;;6290016;22;20342;-81
2024/04/10 07:56:20;;;;;;;1.40;1.30;;;18.40;63.40;;;;;;6289604;22;20287;-81
2024/04/10 07:58:46;;;;;;;1.40;1.30;;;18.40;63.80;;;;;;6289613;22;20270;-81
2024/04/10 08:01:13;;;;;;;2.00;1.40;;;18.40;63.80;;;;;;6289743;22;20732;-80
2024/04/10 08:03:41;;;;;;;1.30;1.20;;;18.40;63.90;;;;;;6287689;22;20227;-81
2024/04/10 08:06:08;;;;;;;1.58;1.30;;;18.40;63.90;;;;;;6327781;22;20238;-81
2024/04/10 08:20:37;;;;;;;1.83;1.20;;;18.50;64.10;;;;;;6604172;20;1314533;-81
2024/04/10 08:23:03;;;;;;;3.38;1.50;;;18.60;63.10;;;;;;6503910;21;20686;-81
2024/04/10 08:25:31;;;;;;;1.20;1.10;;;18.60;63.60;;;;;;6547831;21;20272;-81
2024/04/10 08:27:59;;;;;;;1.30;1.15;;;18.60;63.00;;;;;;6504743;21;20216;-81
2024/04/10 08:30:25;;;;;;;3.13;1.20;;;18.60;63.60;;;;;;6547891;21;20268;-81
2024/04/10 08:32:51;;;;;;;1.23;1.13;;;18.50;63.20;;;;;;6547374;21;20216;-81
2024/04/10 08:35:18;;;;;;;1.40;1.13;;;18.50;63.60;;;;;;6592893;21;20209;-81
2024/04/10 08:37:44;;;;;;;2.88;1.40;;;18.50;63.50;;;;;;6591535;21;20446;-80
2024/04/10 08:40:10;;;;;;;2.33;1.20;;;18.50;63.50;;;;;;6588436;21;20225;-80
2024/04/10 08:42:36;;;;;;;1.40;1.30;;;18.60;63.30;;;;;;6589372;21;20664;-82
2024/04/10 08:45:06;;;;;;;1.98;1.17;;;18.60;62.30;;;;;;6588838;21;20243;-80
2024/04/10 08:47:34;;;;;;;1.65;1.40;;;18.60;62.80;;;;;;6543834;21;20726;-81
2024/04/10 08:50:01;;;;;;;1.30;1.20;;;18.70;62.30;;;;;;6500087;21;20213;-81
2024/04/10 08:52:29;;;;;;;2.15;1.30;;;18.60;63.10;;;;;;6501719;21;20216;-81
2024/04/10 08:54:55;;;;;;;1.00;1.00;;;18.60;63.00;;;;;;6457251;21;20216;-81
2024/04/10 08:57:21;;;;;;;1.13;1.02;;;18.60;62.00;;;;;;6500719;21;20255;-80
2024/04/10 08:59:50;;;;;;;0.80;0.80;;;18.60;61.40;;;;;;6544279;21;20225;-84
2024/04/10 09:02:26;;;;;;;;;;;;;;;;;;;;;
2024/04/10 09:09:08;;;;;;;;;;;;;;;;;;;;;
2024/04/10 09:11:29;;;;;;;7.47;1.70;;;18.60;62.90;;;;;;6022023;23;20320;-81
2024/04/10 09:21:10;;;;;;;1.98;1.27;;;18.60;63.70;;;;;;6040500;23;20237;-81
2024/04/10 09:23:37;;;;;;;4.50;1.20;;;18.70;62.50;;;;;;6010824;23;20232;-81
2024/04/10 09:26:12;;;;;;;4.78;1.25;;;18.70;63.00;;;;;;6009747;23;20232;-82
2024/04/10 09:29:04;;;;;;;1.85;1.30;;;18.70;62.00;;;;;;6011570;23;20244;-82
2024/04/10 09:31:30;;;;;;;7.25;1.30;;;18.70;62.00;;;;;;6008359;23;20304;-82
2024/04/10 09:33:56;;;;;;;2.00;1.10;;;18.80;62.00;;;;;;6009028;23;20289;-81
2024/04/10 09:36:25;;;;;;;4.32;1.38;;;18.80;61.80;;;;;;6011087;23;20228;-82
2024/04/10 09:38:52;;;;;;;2.20;1.20;;;18.70;62.60;;;;;;5958365;24;20273;-82
2024/04/10 09:41:17;;;;;;;2.40;1.02;;;18.70;62.30;;;;;;5952187;24;20721;-81
2024/04/10 09:43:43;;;;;;;2.13;1.30;;;18.80;61.70;;;;;;5951232;24;20275;-82
2024/04/10 09:46:09;;;;;;;2.10;1.17;;;18.80;61.90;;;;;;5983605;23;20316;-81
2024/04/10 09:48:35;;;;;;;2.63;1.10;;;18.80;61.90;;;;;;5996389;23;20226;-81
2024/04/10 09:51:05;;;;;;;1.25;1.05;;;18.80;61.80;;;;;;6034658;23;20255;-81
2024/04/10 09:53:35;;;;;;;1.23;1.13;;;18.80;61.80;;;;;;6034512;23;20234;-82
2024/04/10 09:56:08;;;;;;;2.63;0.90;;;18.80;62.10;;;;;;6154934;23;20236;-81
2024/04/10 09:58:34;;;;;;;2.92;0.93;;;18.90;61.30;;;;;;6328366;22;20243;-82
2024/04/10 10:01:02;;;;;;;0.93;0.90;;;18.80;62.00;;;;;;6344169;22;20292;-82
2024/04/10 10:03:27;;;;;;;1.60;0.98;;;18.80;62.10;;;;;;6344644;22;20355;-82
2024/04/10 10:06:01;;;;;;;2.45;1.00;;;18.80;62.10;;;;;;6340442;22;20639;-82
2024/04/10 10:08:27;;;;;;;3.33;0.95;;;18.80;62.10;;;;;;6339220;22;20224;-82
2024/04/10 10:10:59;;;;;;;2.35;1.10;;;18.80;62.20;;;;;;6524581;21;20217;-81
2024/04/10 10:13:29;;;;;;;1.85;0.90;;;18.80;62.30;;;;;;6494448;21;20209;-82
2024/04/10 10:16:03;;;;;;;1.98;1.00;;;18.80;61.80;;;;;;6450878;21;20331;-82
2024/04/10 10:18:33;;;;;;;0.98;0.90;;;18.80;61.80;;;;;;6495617;21;20213;-82
2024/04/10 10:21:08;;;;;;;1.30;0.98;;;18.80;62.00;;;;;;6419564;21;20788;-82
2024/04/10 10:23:35;;;;;;;1.27;0.80;;;18.80;62.30;;;;;;6545312;21;20215;-81
2024/04/10 10:26:01;;;;;;;2.30;0.90;;;18.70;61.70;;;;;;6588991;21;20322;-81
2024/04/10 10:28:29;;;;;;;0.93;0.90;;;18.80;62.00;;;;;;6545287;21;20324;-82
2024/04/10 10:31:08;;;;;;;0.70;0.70;;;18.80;62.00;;;;;;6588461;21;20304;-83
2024/04/10 10:33:36;;;;;;;1.13;0.95;;;18.70;62.50;;;;;;6546390;21;20216;-82
2024/04/10 10:36:02;;;;;;;0.98;0.85;;;18.70;61.70;;;;;;6503426;21;20212;-82
2024/04/10 10:38:34;;;;;;;1.70;0.90;;;18.80;62.10;;;;;;6589563;21;20224;-82
2024/04/10 10:41:08;;;;;;;0.73;0.73;;;18.80;62.50;;;;;;6502314;21;20243;-83
2024/04/10 10:43:35;;;;;;;1.90;1.20;;;18.70;62.20;;;;;;6546034;21;20247;-82
2024/04/10 10:46:02;;;;;;;1.00;0.90;;;18.70;62.00;;;;;;6587601;21;20263;-82
2024/04/10 10:48:28;;;;;;;3.30;0.98;;;18.80;61.80;;;;;;6585528;21;20216;-81
2024/04/10 10:50:54;;;;;;;1.55;0.75;;;18.80;62.00;;;;;;6541743;21;20246;-81
2024/04/10 10:53:22;;;;;;;1.10;1.00;;;18.80;61.60;;;;;;6541639;21;20220;-82
2024/04/10 10:55:51;;;;;;;0.90;0.90;;;18.80;61.50;;;;;;6501511;21;20236;-82
2024/04/10 10:58:17;;;;;;;1.25;1.08;;;18.80;61.40;;;;;;6544851;21;20212;-82
2024/04/10 11:00:42;;;;;;;1.10;0.93;;;18.80;60.90;;;;;;6588660;21;20299;-81
2024/04/10 11:03:10;;;;;;;2.40;0.95;;;18.80;61.40;;;;;;6548169;21;20232;-81
2024/04/10 11:05:36;;;;;;;0.82;0.80;;;18.80;61.70;;;;;;6547617;21;20766;-82
2024/04/10 11:08:04;;;;;;;3.72;1.00;;;18.80;61.80;;;;;;6544881;21;20302;-81
2024/04/10 11:10:30;;;;;;;1.52;1.33;;;18.80;61.00;;;;;;6545062;21;20220;-82
2024/04/10 11:13:10;;;;;;;2.85;1.10;;;18.70;61.70;;;;;;6545423;21;20258;-82
2024/04/10 11:15:39;;;;;;;1.42;0.80;;;18.70;61.80;;;;;;6589606;21;20251;-82
2024/04/10 11:18:05;;;;;;;2.30;0.88;;;18.70;62.10;;;;;;6546638;21;20598;-82
2024/04/10 11:20:31;;;;;;;1.65;0.90;;;18.70;61.60;;;;;;6502688;21;20280;-82
2024/04/10 11:23:02;;;;;;;0.80;0.80;;;18.70;61.70;;;;;;6546019;21;20263;-82
2024/04/10 11:25:29;;;;;;;3.90;0.90;;;18.80;61.10;;;;;;6588526;21;20228;-82
2024/04/10 11:27:56;;;;;;;1.77;0.80;;;18.80;60.90;;;;;;6545875;21;20677;-82
2024/04/10 11:30:22;;;;;;;1.02;0.80;;;18.80;60.30;;;;;;6502695;21;20245;-82
2024/04/10 11:32:48;;;;;;;2.72;0.90;;;18.80;61.30;;;;;;6589979;21;20211;-83
2024/04/10 11:35:14;;;;;;;1.02;0.93;;;18.80;61.40;;;;;;6504715;21;20242;-81
2024/04/10 11:37:45;;;;;;;1.00;0.77;;;18.80;61.00;;;;;;6503935;21;20397;-82
2024/04/10 11:40:11;;;;;;;1.50;0.95;;;18.70;60.90;;;;;;6546749;21;20212;-82
2024/04/10 11:42:38;;;;;;;1.80;0.90;;;18.70;61.50;;;;;;6590252;21;20262;-83
2024/04/10 11:45:07;;;;;;;1.08;0.80;;;18.70;61.40;;;;;;6503256;21;20246;-83
2024/04/10 11:47:35;;;;;;;2.15;0.90;;;18.70;61.00;;;;;;6547351;21;20690;-82
2024/04/10 11:50:04;;;;;;;0.93;0.75;;;18.70;60.90;;;;;;6503690;21;20227;-82
2024/04/10 11:52:31;;;;;;;0.98;0.90;;;18.70;62.20;;;;;;6588640;21;20243;-82
2024/04/10 11:54:59;;;;;;;0.95;0.88;;;18.70;61.30;;;;;;6547569;21;20232;-83
2024/04/10 11:57:40;;;;;;;1.25;0.90;;;18.80;61.20;;;;;;6505533;21;20212;-82
2024/04/10 12:00:23;;;;;;;2.55;0.70;;;18.80;61.00;;;;;;6466223;22;20218;-87
2024/04/10 12:07:31;;;;;;;;;;;;;;;;;;;;;
2024/04/10 12:09:51;;;;;;;0.98;0.70;;;18.80;60.50;;;;;;6177125;23;20309;-90
2024/04/10 12:13:30;;;;;;;0.70;0.70;;;18.80;61.60;;;;;;6063884;23;20226;-91
2024/04/10 12:16:21;;;;;;;1.55;0.80;;;18.80;60.60;;;;;;6096804;23;20236;-89
2024/04/10 15:23:01;;;;;;;1.23;0.60;;;18.90;59.90;;;;;;6632400;21;20263;-82
2024/04/10 15:25:26;;;;;;;0.50;0.50;;;18.90;59.90;;;;;;6546553;21;20216;-81
2024/04/10 15:27:54;;;;;;;2.22;0.80;;;18.80;60.00;;;;;;6547007;21;20212;-82
2024/04/10 15:30:21;;;;;;;0.68;0.63;;;18.90;60.20;;;;;;6544684;21;20260;-81
2024/04/10 15:32:47;;;;;;;0.85;0.80;;;18.80;60.10;;;;;;6500896;21;20220;-83
2024/04/10 15:35:13;;;;;;;1.27;0.70;;;18.80;59.90;;;;;;6545153;21;20248;-83
2024/04/10 15:37:40;;;;;;;1.65;0.65;;;18.90;60.10;;;;;;6546267;21;20626;-82
2024/04/10 15:40:09;;;;;;;0.70;0.70;;;18.80;59.90;;;;;;6544407;21;20224;-83
2024/04/10 15:42:37;;;;;;;0.60;0.60;;;18.80;60.30;;;;;;6547581;21;20290;-83
2024/04/10 15:45:03;;;;;;;2.38;0.80;;;18.90;59.80;;;;;;6544715;21;20216;-82
2024/04/10 15:47:29;;;;;;;1.30;0.80;;;18.90;59.70;;;;;;6546173;21;20655;-83
2024/04/10 15:49:55;;;;;;;4.45;1.02;;;18.90;60.10;;;;;;6590445;21;20325;-82
2024/04/10 15:52:21;;;;;;;5.70;0.80;;;18.90;60.30;;;;;;6546411;21;20313;-82
2024/04/10 15:54:47;;;;;;;3.60;1.00;;;18.90;60.90;;;;;;6547067;21;20223;-83
2024/04/10 15:57:13;;;;;;;5.30;1.00;;;18.90;60.30;;;;;;6507591;21;20224;-84
2024/04/10 15:59:41;;;;;;;6.80;0.90;;;19.00;60.00;;;;;;6550677;21;20250;-80
2024/04/10 16:02:13;;;;;;;7.15;0.85;;;18.90;60.20;;;;;;6591585;21;20267;-82
2024/04/10 16:04:41;;;;;;;6.63;0.75;;;19.00;59.90;;;;;;6507673;21;20220;-83
2024/04/10 16:07:09;;;;;;;4.75;0.77;;;19.00;60.00;;;;;;6506891;21;20572;-82
2024/04/10 16:09:35;;;;;;;2.97;0.90;;;18.90;60.30;;;;;;6549268;21;20255;-82
2024/04/10 16:12:01;;;;;;;1.48;0.70;;;18.90;59.90;;;;;;6591840;21;20224;-82
2024/04/10 16:14:28;;;;;;;2.75;0.85;;;19.00;59.70;;;;;;6504051;21;20258;-83
2024/04/10 16:16:56;;;;;;;4.25;1.02;;;19.00;59.60;;;;;;6546440;21;20228;-83
2024/04/10 16:19:24;;;;;;;5.28;0.90;;;19.00;60.00;;;;;;6548920;21;20258;-82
2024/04/10 16:21:50;;;;;;;1.60;0.70;;;18.90;60.20;;;;;;6459136;21;20338;-82
2024/04/10 16:24:23;;;;;;;3.45;0.63;;;18.90;60.20;;;;;;6538593;21;20233;-85
2024/04/10 16:26:52;;;;;;;3.03;0.60;;;18.90;60.30;;;;;;6537634;21;20264;-83
2024/04/10 16:29:18;;;;;;;1.10;0.50;;;18.90;60.00;;;;;;6537638;21;20317;-82
2024/04/10 16:31:44;;;;;;;6.15;0.80;;;18.90;59.90;;;;;;6537770;21;20217;-83
2024/04/10 16:34:10;;;;;;;1.55;0.80;;;19.00;59.70;;;;;;6494043;21;20339;-82
2024/04/10 16:36:38;;;;;;;4.40;0.65;;;18.90;59.50;;;;;;6538438;21;20295;-83